KGRI

Central Nebraska Regional Airport

Airport
ICAO code
KGRI
IATA Code
GRI
Summary
ICAO Region
NAM
ICAO Territory
Location

Grand Island, Nebraska

Serving
Grand Island
Elevation
1847 ft
Coordinates
40° 58' 9" N , 98° 19' 7" W
KCC
Metar
KGRI 181553Z 01020G30KT 10SM SCT110 08/M01 A3022 RMK AO2 PK WND 35030/1546 SLP241 T00831011

Description

Central Nebraska Regional Airport is a public use airport located 3 nm northeast of Grand Island, in Hall County, Nebraska, USA.

Airport map

Aerial View

SKYbrary Partners:

Safety knowledge contributed by: